Time;durP1;ratioP1;P1;durP2;ratioP2;P2;SDS_P1;SDS_P2;PMS_P1;PMS_P2;Temp;Humidity;BMP_temperature;BMP_pressure;BME280_temperature;BME280_humidity;BME280_pressure;Samples;Min_cycle;Max_cycle;Signal;HPM_P1;HPM_P2
2022/08/14 00:02:25;;;;;;;;;;;;;;;23.30;49.25;98966.13;4339484;33;33751;-79
2022/08/14 00:05:06;;;;;;;;;;;;;;;23.30;49.09;98968.75;4340184;33;33426;-78
2022/08/14 00:07:35;;;;;;;;;;;;;;;23.26;48.93;98966.47;4345385;33;34133;-78
2022/08/14 00:10:10;;;;;;;;;;;;;;;23.21;49.32;98969.47;4339397;33;34882;-77
2022/08/14 00:12:59;;;;;;;;;;;;;;;22.93;49.81;98965.41;4333498;33;34883;-76
2022/08/14 00:15:35;;;;;;;;;;;;;;;22.89;50.22;98966.63;4340042;33;34101;-75
2022/08/14 00:18:14;;;;;;;;;;;;;;;22.94;50.11;98956.53;4338535;33;34728;-76
2022/08/14 00:21:04;;;;;;;;;;;;;;;22.82;50.25;98963.56;4323518;33;34356;-76
2022/08/14 00:23:38;;;;;;;;;;;;;;;22.65;50.60;98964.00;4341878;33;35114;-76
2022/08/14 00:26:08;;;;;;;;;;;;;;;22.94;50.04;98962.66;4339155;33;32760;-76
2022/08/14 00:28:49;;;;;;;;;;;;;;;22.92;49.92;98956.63;4339775;33;34391;-76
2022/08/14 00:31:18;;;;;;;;;;;;;;;22.86;50.21;98949.19;4338815;33;34193;-76
2022/08/14 00:34:03;;;;;;;;;;;;;;;22.62;50.85;98949.22;4339956;33;33549;-77
2022/08/14 00:36:53;;;;;;;;;;;;;;;22.79;50.31;98953.25;4337427;33;33511;-76
2022/08/14 00:39:26;;;;;;;;;;;;;;;22.58;50.78;98953.88;4332761;33;33800;-77
2022/08/14 00:41:58;;;;;;;;;;;;;;;22.77;50.46;98944.56;4324398;33;34801;-77
2022/08/14 00:44:29;;;;;;;;;;;;;;;22.55;50.93;98943.53;4324535;33;34254;-76
2022/08/14 00:47:02;;;;;;;;;;;;;;;22.69;50.64;98945.16;4324649;33;34019;-76
2022/08/14 00:49:31;;;;;;;;;;;;;;;22.64;50.71;98943.78;4334481;32;33845;-75
2022/08/14 00:52:12;;;;;;;;;;;;;;;22.73;50.48;98938.66;4343675;33;34998;-75
2022/08/14 00:54:52;;;;;;;;;;;;;;;22.63;50.86;98942.13;4339036;33;33792;-75
2022/08/14 00:57:26;;;;;;;;;;;;;;;22.57;51.31;98946.06;4339820;33;33085;-76
2022/08/14 00:59:55;;;;;;;;;;;;;;;22.53;51.36;98947.25;4338639;33;33880;-77
2022/08/14 01:02:24;;;;;;;;;;;;;;;22.67;51.00;98940.94;4344873;33;34237;-75
2022/08/14 01:05:00;;;;;;;;;;;;;;;22.50;51.52;98947.50;4344731;33;33915;-76
2022/08/14 01:07:30;;;;;;;;;;;;;;;22.43;51.58;98946.25;4340845;33;33895;-75
2022/08/14 01:10:17;;;;;;;;;;;;;;;22.24;51.74;98946.75;4328892;33;34064;-75
2022/08/14 01:12:47;;;;;;;;;;;;;;;22.16;52.12;98947.31;4333766;33;33971;-75
2022/08/14 01:15:20;;;;;;;;;;;;;;;21.84;53.21;98949.59;4344883;33;33669;-76
2022/08/14 01:21:05;;;;;;;;;;;;;;;21.92;53.12;98952.56;4340889;33;34349;-75
2022/08/14 01:23:37;;;;;;;;;;;;;;;22.03;52.93;98955.25;4341348;33;35792;-76
2022/08/14 01:26:14;;;;;;;;;;;;;;;22.14;52.50;98947.41;4341341;33;33557;-75
2022/08/14 01:29:03;;;;;;;;;;;;;;;22.04;52.86;98949.03;4340501;33;32948;-75
2022/08/14 01:31:33;;;;;;;;;;;;;;;22.05;52.59;98948.06;4340829;33;33878;-75
2022/08/14 01:34:05;;;;;;;;;;;;;;;21.86;53.10;98958.25;4346573;33;33472;-75
2022/08/14 01:36:54;;;;;;;;;;;;;;;21.95;52.56;98961.09;4342565;33;33555;-76
2022/08/14 01:39:24;;;;;;;;;;;;;;;21.85;52.90;98956.59;4339580;33;33039;-76
2022/08/14 01:41:55;;;;;;;;;;;;;;;22.13;52.05;98960.72;4340877;33;33822;-75
2022/08/14 01:44:27;;;;;;;;;;;;;;;21.89;52.78;98958.91;4341052;33;34019;-76
2022/08/14 01:47:02;;;;;;;;;;;;;;;22.04;52.36;98958.75;4346319;33;34653;-74
2022/08/14 01:49:33;;;;;;;;;;;;;;;22.06;52.24;98964.75;4329314;33;33986;-75
2022/08/14 01:52:03;;;;;;;;;;;;;;;22.08;51.89;98957.56;4326011;33;33593;-76
2022/08/14 01:54:53;;;;;;;;;;;;;;;22.12;51.89;98957.22;4325733;33;35540;-76
2022/08/14 01:57:25;;;;;;;;;;;;;;;21.86;52.53;98958.25;4326357;33;34357;-76
2022/08/14 02:00:15;;;;;;;;;;;;;;;22.10;52.05;98953.84;4346161;33;33666;-76
2022/08/14 02:02:45;;;;;;;;;;;;;;;21.96;52.52;98959.28;4343146;33;34649;-75
2022/08/14 02:05:20;;;;;;;;;;;;;;;21.80;53.04;98958.72;4336487;33;34691;-75
2022/08/14 02:07:49;;;;;;;;;;;;;;;22.01;52.46;98956.31;4340705;33;34392;-76
2022/08/14 02:10:37;;;;;;;;;;;;;;;22.05;52.41;98961.28;4340714;33;33779;-75
2022/08/14 02:13:15;;;;;;;;;;;;;;;22.08;52.30;98958.41;4342368;33;34370;-76
2022/08/14 02:15:44;;;;;;;;;;;;;;;22.12;52.31;98954.59;4335275;33;34692;-75
2022/08/14 02:18:17;;;;;;;;;;;;;;;22.15;52.51;98961.44;4325887;33;35290;-75
2022/08/14 02:20:47;;;;;;;;;;;;;;;22.09;52.47;98965.37;4324558;32;33370;-76
2022/08/14 02:23:16;;;;;;;;;;;;;;;21.96;53.02;98967.22;4339275;33;34966;-76
2022/08/14 02:26:06;;;;;;;;;;;;;;;22.07;52.53;98969.94;4346080;33;34845;-77
2022/08/14 02:28:55;;;;;;;;;;;;;;;21.97;53.11;98961.00;4346399;33;34246;-76
2022/08/14 02:31:28;;;;;;;;;;;;;;;21.91;53.13;98961.41;4339780;33;33459;-75
2022/08/14 02:34:12;;;;;;;;;;;;;;;22.08;52.33;98952.28;4332696;33;34738;-75
2022/08/14 02:36:51;;;;;;;;;;;;;;;21.83;53.19;98953.22;4340189;33;33919;-75
2022/08/14 02:39:33;;;;;;;;;;;;;;;21.61;53.84;98952.09;4340336;33;34217;-76
2022/08/14 02:42:08;;;;;;;;;;;;;;;21.80;53.38;98954.28;4341942;33;33650;-76
2022/08/14 02:44:41;;;;;;;;;;;;;;;21.69;53.75;98956.81;4345666;33;34291;-76
2022/08/14 02:47:10;;;;;;;;;;;;;;;21.75;53.57;98956.41;4339465;33;34164;-76
2022/08/14 02:49:42;;;;;;;;;;;;;;;21.86;53.17;98956.47;4330555;33;34568;-75
2022/08/14 02:52:11;;;;;;;;;;;;;;;21.74;53.44;98960.81;4328566;33;33712;-76
2022/08/14 02:55:00;;;;;;;;;;;;;;;21.67;53.66;98962.22;4330895;33;33674;-75
2022/08/14 02:57:31;;;;;;;;;;;;;;;21.71;53.46;98965.47;4331040;33;35215;-75
2022/08/14 03:00:09;;;;;;;;;;;;;;;21.76;53.55;98970.44;4325668;33;33604;-74
2022/08/14 03:02:38;;;;;;;;;;;;;;;21.77;53.42;98967.69;4330574;33;33379;-76
2022/08/14 03:05:29;;;;;;;;;;;;;;;21.78;53.47;98964.09;4339616;33;33900;-75
2022/08/14 03:08:04;;;;;;;;;;;;;;;21.73;53.76;98968.84;4333546;33;35032;-75
2022/08/14 03:10:35;;;;;;;;;;;;;;;21.82;53.28;98968.22;4336402;33;33558;-75
2022/08/14 03:13:10;;;;;;;;;;;;;;;21.79;53.52;98963.13;4331147;33;33332;-75
2022/08/14 03:15:49;;;;;;;;;;;;;;;21.70;53.79;98969.09;4340088;33;34969;-75
2022/08/14 03:18:24;;;;;;;;;;;;;;;21.59;54.20;98971.63;4340362;33;34749;-76
2022/08/14 03:21:00;;;;;;;;;;;;;;;21.73;53.66;98969.69;4340214;33;33908;-76
2022/08/14 03:23:34;;;;;;;;;;;;;;;21.69;53.94;98965.56;4337952;32;34126;-75
2022/08/14 03:26:07;;;;;;;;;;;;;;;21.68;54.02;98968.34;4340327;33;33795;-75
2022/08/14 03:28:41;;;;;;;;;;;;;;;21.62;54.18;98966.13;4340202;33;33915;-76
2022/08/14 03:31:10;;;;;;;;;;;;;;;21.58;54.44;98970.78;4340397;33;34418;-76
2022/08/14 03:33:41;;;;;;;;;;;;;;;21.65;54.25;98965.91;4339859;33;33112;-75
2022/08/14 03:36:13;;;;;;;;;;;;;;;21.47;54.96;98970.69;4345452;33;33631;-75
2022/08/14 03:39:03;;;;;;;;;;;;;;;21.63;54.39;98975.75;4325816;33;35035;-75
2022/08/14 03:41:49;;;;;;;;;;;;;;;21.42;55.31;98967.53;4326198;33;34112;-75
2022/08/14 03:44:19;;;;;;;;;;;;;;;21.26;55.47;98960.66;4325412;33;33578;-77
2022/08/14 03:47:08;;;;;;;;;;;;;;;21.55;54.64;98970.16;4326863;33;35006;-75
2022/08/14 03:49:39;;;;;;;;;;;;;;;21.61;54.42;98960.00;4329580;33;34712;-76
2022/08/14 03:52:09;;;;;;;;;;;;;;;21.29;55.60;98968.34;4334450;32;34934;-76
2022/08/14 03:54:59;;;;;;;;;;;;;;;21.31;55.51;98965.56;4338305;32;32908;-76
2022/08/14 03:57:31;;;;;;;;;;;;;;;21.59;54.91;98961.91;4325252;33;34202;-76
2022/08/14 04:00:09;;;;;;;;;;;;;;;21.43;55.36;98962.16;4333895;33;33954;-75
2022/08/14 04:02:55;;;;;;;;;;;;;;;21.44;55.31;98966.47;4340207;33;33718;-75
2022/08/14 04:05:25;;;;;;;;;;;;;;;21.50;55.45;98967.81;4345661;33;33243;-75
2022/08/14 04:07:54;;;;;;;;;;;;;;;21.56;55.22;98970.03;4316051;33;779897;-76
2022/08/14 04:10:45;;;;;;;;;;;;;;;21.58;55.33;98973.44;4336009;33;34693;-76
2022/08/14 04:13:17;;;;;;;;;;;;;;;21.57;55.33;98974.34;4340262;33;34130;-76
2022/08/14 04:15:47;;;;;;;;;;;;;;;21.65;55.12;98979.97;4342641;33;33405;-75
2022/08/14 04:18:23;;;;;;;;;;;;;;;21.61;55.38;98978.47;4345458;33;33959;-75
2022/08/14 04:20:52;;;;;;;;;;;;;;;21.71;55.18;98979.50;4327915;33;33690;-76
2022/08/14 04:23:23;;;;;;;;;;;;;;;21.72;55.39;98983.00;4325499;33;33868;-75
2022/08/14 04:26:03;;;;;;;;;;;;;;;21.62;55.67;98981.97;4325161;33;34183;-75
2022/08/14 04:28:36;;;;;;;;;;;;;;;21.80;55.35;98979.84;4325271;33;33610;-76
2022/08/14 04:31:26;;;;;;;;;;;;;;;21.78;55.63;98985.22;4344301;33;33808;-76
2022/08/14 04:34:14;;;;;;;;;;;;;;;21.81;55.70;98976.22;4330651;33;34135;-75
2022/08/14 04:45:19;;;;;;;;;;;;;;;22.05;54.92;99000.88;4327420;33;34602;-75
2022/08/14 04:50:37;;;;;;;;;;;;;;;22.07;55.00;98992.88;4340647;33;33949;-77
2022/08/14 04:53:13;;;;;;;;;;;;;;;22.19;54.92;98991.16;4341700;33;35124;-75
2022/08/14 04:55:42;;;;;;;;;;;;;;;22.25;54.94;98980.97;4340460;33;33923;-76
2022/08/14 04:58:10;;;;;;;;;;;;;;;22.36;54.50;98982.84;4341426;33;32989;-75
2022/08/14 05:00:59;;;;;;;;;;;;;;;22.37;54.27;98981.88;4340279;33;33515;-75
2022/08/14 05:03:30;;;;;;;;;;;;;;;22.28;54.67;98979.94;4346602;33;34223;-75
2022/08/14 05:06:00;;;;;;;;;;;;;;;22.44;54.51;98993.69;4341124;33;34069;-76
2022/08/14 05:08:30;;;;;;;;;;;;;;;22.53;53.62;98993.03;4341524;33;33330;-75
2022/08/14 05:11:19;;;;;;;;;;;;;;;22.43;54.50;98988.53;4341186;33;33640;-75
2022/08/14 05:13:48;;;;;;;;;;;;;;;22.57;54.44;98991.03;4342084;33;34242;-76
2022/08/14 05:16:37;;;;;;;;;;;;;;;22.77;54.25;98995.66;4341253;33;33823;-77
2022/08/14 05:19:09;;;;;;;;;;;;;;;23.08;53.53;98988.09;4346538;33;33339;-76
2022/08/14 05:21:57;;;;;;;;;;;;;;;23.40;52.45;98982.13;4328650;32;33697;-75
2022/08/14 05:24:44;;;;;;;;;;;;;;;23.89;50.79;98986.25;4336847;33;34048;-76
2022/08/14 05:27:19;;;;;;;;;;;;;;;24.41;49.54;98983.84;4340918;33;33817;-76
2022/08/14 05:29:51;;;;;;;;;;;;;;;24.95;47.69;98979.44;4339583;33;33052;-76
2022/08/14 05:32:21;;;;;;;;;;;;;;;25.31;47.30;98986.13;4345914;33;33948;-76
2022/08/14 05:34:51;;;;;;;;;;;;;;;25.70;46.61;98986.28;4340433;33;34070;-77
2022/08/14 05:37:19;;;;;;;;;;;;;;;25.89;45.78;98991.72;4340595;33;33551;-76
2022/08/14 05:39:48;;;;;;;;;;;;;;;25.99;45.47;98994.41;4339385;33;34866;-76
2022/08/14 05:42:17;;;;;;;;;;;;;;;25.99;45.64;98996.22;4338379;33;34183;-76
2022/08/14 05:44:54;;;;;;;;;;;;;;;25.75;45.85;98989.38;4343784;33;33994;-76
2022/08/14 05:47:23;;;;;;;;;;;;;;;25.82;45.81;98990.53;4340114;33;33787;-76
2022/08/14 05:50:06;;;;;;;;;;;;;;;25.82;45.86;98993.19;4337694;33;34022;-76
2022/08/14 05:52:44;;;;;;;;;;;;;;;25.77;46.49;98988.28;4339170;32;34225;-76
2022/08/14 05:55:13;;;;;;;;;;;;;;;25.85;45.50;99000.06;4340136;33;34071;-76
2022/08/14 05:57:47;;;;;;;;;;;;;;;25.85;45.47;98998.22;4344615;33;34257;-77
2022/08/14 06:00:17;;;;;;;;;;;;;;;25.86;45.97;98997.31;4340700;33;33358;-76
2022/08/14 06:02:56;;;;;;;;;;;;;;;25.93;46.05;98998.44;4339406;33;34212;-76
2022/08/14 06:05:28;;;;;;;;;;;;;;;25.79;46.23;99001.44;4341009;33;34431;-76
2022/08/14 06:07:57;;;;;;;;;;;;;;;25.82;45.96;98995.84;4342832;33;35331;-77
2022/08/14 06:10:26;;;;;;;;;;;;;;;25.82;46.64;98995.03;4345206;33;33553;-77
2022/08/14 06:12:56;;;;;;;;;;;;;;;25.73;46.19;99000.16;4338029;33;33726;-75
2022/08/14 06:15:25;;;;;;;;;;;;;;;25.58;46.82;98982.06;4340087;33;33779;-76
2022/08/14 06:17:58;;;;;;;;;;;;;;;25.37;47.31;98990.06;4338327;33;33671;-76
2022/08/14 06:20:30;;;;;;;;;;;;;;;25.48;46.85;98982.00;4343607;33;33170;-76
2022/08/14 06:23:01;;;;;;;;;;;;;;;25.08;48.02;98983.59;4338005;33;33231;-77
2022/08/14 06:25:30;;;;;;;;;;;;;;;25.63;46.96;98985.16;4338371;33;34005;-76
2022/08/14 06:28:00;;;;;;;;;;;;;;;25.64;46.99;98984.19;4340191;33;33386;-76
2022/08/14 06:30:32;;;;;;;;;;;;;;;25.28;47.71;98981.06;4341190;33;33884;-76
2022/08/14 06:33:13;;;;;;;;;;;;;;;25.42;47.24;98985.19;4346132;33;34583;-76
2022/08/14 06:35:45;;;;;;;;;;;;;;;25.44;47.30;98984.09;4339347;33;34113;-76
2022/08/14 06:38:14;;;;;;;;;;;;;;;25.89;45.25;98989.06;4337819;33;34461;-76
2022/08/14 06:40:45;;;;;;;;;;;;;;;25.52;46.26;98983.44;4338409;33;32846;-75
2022/08/14 06:43:14;;;;;;;;;;;;;;;25.73;46.10;98986.87;4346078;33;34904;-76
2022/08/14 06:45:45;;;;;;;;;;;;;;;25.83;45.37;98986.91;4341728;33;33412;-75
2022/08/14 06:48:22;;;;;;;;;;;;;;;26.01;45.38;98984.47;4325801;33;34129;-77
2022/08/14 06:50:54;;;;;;;;;;;;;;;25.62;46.46;98976.34;4325764;33;33091;-76
2022/08/14 06:53:25;;;;;;;;;;;;;;;25.64;46.48;98978.88;4324350;32;33258;-76
2022/08/14 06:55:58;;;;;;;;;;;;;;;25.96;46.06;98973.41;4341366;33;34711;-77
2022/08/14 06:58:30;;;;;;;;;;;;;;;25.84;47.04;98969.16;4343640;33;34046;-76
2022/08/14 07:06:54;;;;;;;;;;;;;;;25.80;47.38;98965.06;4338619;33;33525;-76
2022/08/14 07:09:27;;;;;;;;;;;;;;;25.52;48.16;98965.69;4340279;33;35056;-77
2022/08/14 07:12:12;;;;;;;;;;;;;;;26.14;46.32;98968.28;4345512;33;33298;-77
2022/08/14 07:15:01;;;;;;;;;;;;;;;25.80;47.84;98962.41;4345998;33;33556;-75
2022/08/14 07:17:29;;;;;;;;;;;;;;;26.33;46.16;98964.81;4330014;33;35223;-76
2022/08/14 07:20:01;;;;;;;;;;;;;;;26.54;45.47;98957.56;4325762;33;33792;-77
2022/08/14 07:22:34;;;;;;;;;;;;;;;26.76;44.41;98972.41;4325482;33;33245;-76
2022/08/14 07:25:23;;;;;;;;;;;;;;;26.75;45.00;98968.06;4326811;33;34754;-75
2022/08/14 07:28:00;;;;;;;;;;;;;;;26.78;44.81;98967.78;4341726;33;34571;-77
2022/08/14 07:30:28;;;;;;;;;;;;;;;26.50;45.15;98965.94;4325725;33;33639;-76
2022/08/14 07:33:03;;;;;;;;;;;;;;;26.47;45.65;98969.72;4325808;33;33404;-77
2022/08/14 07:35:31;;;;;;;;;;;;;;;26.82;44.46;98979.00;4325144;33;34685;-76
2022/08/14 07:38:22;;;;;;;;;;;;;;;27.04;44.09;98961.88;4339711;33;34710;-76
2022/08/14 07:40:52;;;;;;;;;;;;;;;26.73;45.12;98969.19;4340594;33;33876;-76
2022/08/14 07:43:21;;;;;;;;;;;;;;;26.58;45.50;98968.78;4334629;33;33452;-76
2022/08/14 07:45:50;;;;;;;;;;;;;;;26.88;44.68;98961.62;4340265;33;34593;-78
2022/08/14 07:48:21;;;;;;;;;;;;;;;27.02;44.36;98961.19;4339949;33;33285;-77
2022/08/14 07:50:52;;;;;;;;;;;;;;;27.08;44.61;98960.59;4341323;33;33673;-76
2022/08/14 07:53:32;;;;;;;;;;;;;;;27.33;43.51;98966.31;4345940;33;33605;-76
2022/08/14 07:56:06;;;;;;;;;;;;;;;27.02;44.43;98959.34;4336684;33;34633;-77
2022/08/14 07:58:54;;;;;;;;;;;;;;;27.26;44.15;98960.75;4337786;33;35185;-76
2022/08/14 08:01:26;;;;;;;;;;;;;;;27.71;42.94;98946.66;4339501;33;34532;-77
2022/08/14 08:03:58;;;;;;;;;;;;;;;27.51;43.51;98958.41;4335388;33;34203;-76
2022/08/14 08:06:27;;;;;;;;;;;;;;;27.69;42.87;98962.00;4341813;33;33121;-76
2022/08/14 08:08:59;;;;;;;;;;;;;;;27.81;43.05;98958.13;4339105;33;33781;-76
2022/08/14 08:11:32;;;;;;;;;;;;;;;27.57;42.94;98961.34;4339630;33;33484;-76
2022/08/14 08:14:06;;;;;;;;;;;;;;;27.81;43.42;98954.59;4338198;33;32998;-76
2022/08/14 08:16:45;;;;;;;;;;;;;;;27.50;43.58;98962.91;4325568;33;35374;-78
2022/08/14 08:19:17;;;;;;;;;;;;;;;27.62;43.56;98963.56;4335352;33;34361;-76
2022/08/14 08:21:46;;;;;;;;;;;;;;;28.17;42.10;98962.72;4340058;33;33883;-76
2022/08/14 08:24:16;;;;;;;;;;;;;;;28.06;41.04;98959.28;4330908;32;32770;-76
2022/08/14 08:26:48;;;;;;;;;;;;;;;27.87;41.19;98954.06;4334713;33;34136;-77
2022/08/14 08:29:19;;;;;;;;;;;;;;;27.67;42.34;98948.81;4344352;33;33971;-78
2022/08/14 08:31:58;;;;;;;;;;;;;;;27.57;42.36;98953.34;4345437;33;34474;-77
2022/08/14 08:34:43;;;;;;;;;;;;;;;27.74;41.21;98946.38;4339606;33;33311;-76
2022/08/14 08:37:12;;;;;;;;;;;;;;;28.13;40.85;98954.19;4333880;33;34171;-77
2022/08/14 08:39:45;;;;;;;;;;;;;;;28.27;39.85;98952.81;4324926;33;34628;-75
2022/08/14 08:42:30;;;;;;;;;;;;;;;28.29;40.72;98948.16;4325459;33;35105;-76
2022/08/14 08:45:14;;;;;;;;;;;;;;;28.15;40.80;98951.34;4330303;33;33067;-78
2022/08/14 08:47:44;;;;;;;;;;;;;;;28.14;41.34;98947.84;4333580;33;33866;-77
2022/08/14 08:50:21;;;;;;;;;;;;;;;28.02;41.39;98946.41;4339560;33;34841;-77
2022/08/14 08:52:58;;;;;;;;;;;;;;;28.04;41.96;98945.25;4339825;33;33952;-77
2022/08/14 08:55:32;;;;;;;;;;;;;;;28.32;40.84;98947.03;4339276;33;34279;-76
2022/08/14 08:58:03;;;;;;;;;;;;;;;28.73;40.79;98945.62;4335330;33;34650;-78
2022/08/14 09:00:33;;;;;;;;;;;;;;;28.60;41.24;98945.16;4324726;33;34317;-76
2022/08/14 09:03:04;;;;;;;;;;;;;;;28.87;40.33;98937.03;4326133;33;33257;-77
2022/08/14 09:05:34;;;;;;;;;;;;;;;29.04;40.30;98934.47;4324640;33;33166;-76
2022/08/14 09:08:09;;;;;;;;;;;;;;;29.11;40.90;98935.56;4334510;33;33639;-78
2022/08/14 09:10:59;;;;;;;;;;;;;;;29.40;39.78;98934.37;4335464;33;35151;-77
2022/08/14 09:13:28;;;;;;;;;;;;;;;29.01;40.07;98934.78;4338818;33;34502;-77
2022/08/14 09:16:00;;;;;;;;;;;;;;;29.68;38.75;98935.06;4324840;33;34051;-76
2022/08/14 09:18:46;;;;;;;;;;;;;;;29.72;38.16;98931.03;4324711;33;34516;-78
2022/08/14 09:21:17;;;;;;;;;;;;;;;29.46;38.37;98931.09;4324476;33;33995;-77
2022/08/14 09:23:47;;;;;;;;;;;;;;;29.90;37.22;98928.28;4329671;33;35121;-78
2022/08/14 09:26:38;;;;;;;;;;;;;;;29.81;37.74;98929.25;4329800;33;33020;-77
2022/08/14 09:29:06;;;;;;;;;;;;;;;29.85;37.48;98920.72;4324822;33;33527;-78
2022/08/14 09:31:38;;;;;;;;;;;;;;;30.12;37.02;98916.94;4334642;33;33765;-76
2022/08/14 09:34:22;;;;;;;;;;;;;;;30.28;36.48;98923.38;4327070;33;34886;-77
2022/08/14 09:37:00;;;;;;;;;;;;;;;30.37;34.23;98919.69;4338102;33;33368;-77
2022/08/14 09:39:40;;;;;;;;;;;;;;;30.09;34.21;98916.47;4344252;33;34703;-77
2022/08/14 09:42:16;;;;;;;;;;;;;;;30.47;33.96;98920.38;4339647;33;34099;-77
2022/08/14 09:45:15;;;;;;;;;;;;;;;30.71;33.48;98907.97;4336702;33;34624;-77
2022/08/14 09:47:45;;;;;;;;;;;;;;;30.23;34.52;98907.78;4342839;32;34139;-77
2022/08/14 09:50:18;;;;;;;;;;;;;;;30.60;33.66;98910.00;4340722;33;33587;-77
2022/08/14 09:52:51;;;;;;;;;;;;;;;30.19;34.62;98907.25;4345439;33;34307;-78
2022/08/14 09:55:26;;;;;;;;;;;;;;;30.48;33.86;98897.13;4327747;32;34673;-79
2022/08/14 09:58:07;;;;;;;;;;;;;;;30.82;33.65;98896.94;4335930;33;32459;-78
2022/08/14 10:00:43;;;;;;;;;;;;;;;31.07;32.40;98894.22;4341057;33;33864;-78
2022/08/14 10:03:12;;;;;;;;;;;;;;;31.34;30.12;98895.66;4340061;33;33919;-78
2022/08/14 10:05:40;;;;;;;;;;;;;;;31.58;29.08;98894.75;4345343;33;34087;-77
2022/08/14 10:08:16;;;;;;;;;;;;;;;31.72;28.32;98898.53;4342231;33;33003;-77
2022/08/14 10:10:54;;;;;;;;;;;;;;;31.72;28.40;98896.69;4340101;33;33505;-78
2022/08/14 10:13:31;;;;;;;;;;;;;;;31.90;28.02;98899.12;4332155;33;33858;-77
2022/08/14 10:16:22;;;;;;;;;;;;;;;31.69;26.74;98889.00;4325726;33;33723;-77
2022/08/14 10:19:01;;;;;;;;;;;;;;;31.27;27.66;98892.84;4325725;33;33148;-77
2022/08/14 10:21:30;;;;;;;;;;;;;;;31.76;27.63;98892.66;4331549;33;35889;-76
2022/08/14 10:24:08;;;;;;;;;;;;;;;32.03;28.66;98891.34;4337712;33;33777;-77
2022/08/14 10:26:37;;;;;;;;;;;;;;;32.21;28.83;98890.22;4340804;33;34588;-76
2022/08/14 10:29:09;;;;;;;;;;;;;;;32.13;28.08;98887.59;4340905;33;33026;-78
2022/08/14 10:31:57;;;;;;;;;;;;;;;32.19;28.32;98892.28;4341033;33;34943;-77
2022/08/14 10:34:30;;;;;;;;;;;;;;;32.30;28.62;98889.16;4342011;33;33974;-78
2022/08/14 10:37:06;;;;;;;;;;;;;;;32.58;28.58;98884.09;4340592;33;34975;-77
2022/08/14 10:39:42;;;;;;;;;;;;;;;32.77;28.48;98881.94;4340431;33;33548;-77
2022/08/14 10:42:34;;;;;;;;;;;;;;;32.85;27.88;98879.97;4340573;33;34866;-77
2022/08/14 10:45:19;;;;;;;;;;;;;;;32.91;26.90;98881.06;4340724;33;34851;-77
2022/08/14 10:47:51;;;;;;;;;;;;;;;32.84;26.27;98883.69;4341002;33;34545;-79
2022/08/14 10:50:40;;;;;;;;;;;;;;;32.92;26.63;98880.06;4345750;33;33406;-77
2022/08/14 10:53:11;;;;;;;;;;;;;;;33.14;26.61;98886.41;4331122;33;34191;-78
2022/08/14 10:55:39;;;;;;;;;;;;;;;33.23;25.95;98882.63;4326165;33;33794;-77
2022/08/14 10:58:13;;;;;;;;;;;;;;;33.14;25.22;98878.34;4325727;33;34238;-78
2022/08/14 11:00:54;;;;;;;;;;;;;;;33.10;23.39;98875.22;4325866;33;32477;-78
2022/08/14 11:03:26;;;;;;;;;;;;;;;32.86;24.81;98873.59;4339968;33;34061;-78
2022/08/14 11:06:18;;;;;;;;;;;;;;;32.95;24.41;98869.78;4346117;33;34267;-76
2022/08/14 11:08:48;;;;;;;;;;;;;;;33.12;26.58;98865.09;4340341;33;34148;-77
2022/08/14 11:11:18;;;;;;;;;;;;;;;33.42;26.11;98867.78;4341038;33;33565;-77
2022/08/14 11:13:49;;;;;;;;;;;;;;;33.59;25.40;98865.75;4339804;33;34995;-76
2022/08/14 11:16:18;;;;;;;;;;;;;;;33.63;25.50;98869.69;4345848;33;33769;-77
2022/08/14 11:18:49;;;;;;;;;;;;;;;33.35;24.87;98859.63;4340689;32;33827;-77
2022/08/14 11:21:19;;;;;;;;;;;;;;;33.14;24.99;98846.09;4340174;33;33510;-77
2022/08/14 11:23:49;;;;;;;;;;;;;;;33.28;25.62;98849.81;4339990;33;34123;-77
2022/08/14 11:26:22;;;;;;;;;;;;;;;33.48;27.19;98848.19;4331024;32;34774;-77
2022/08/14 11:28:52;;;;;;;;;;;;;;;33.79;25.58;98850.66;4341674;33;33258;-77
2022/08/14 11:31:23;;;;;;;;;;;;;;;33.89;25.48;98842.28;4340751;33;33809;-77
2022/08/14 11:33:56;;;;;;;;;;;;;;;33.98;25.12;98843.81;4339394;33;34734;-79
2022/08/14 11:36:27;;;;;;;;;;;;;;;34.25;24.54;98843.28;4339965;32;34063;-79
2022/08/14 11:39:19;;;;;;;;;;;;;;;34.48;23.90;98840.34;4340323;33;34051;-77
2022/08/14 11:42:03;;;;;;;;;;;;;;;34.72;23.50;98831.84;4344709;33;32918;-77
2022/08/14 11:44:51;;;;;;;;;;;;;;;34.98;22.38;98827.66;4338628;33;33883;-77
2022/08/14 11:47:23;;;;;;;;;;;;;;;35.08;21.25;98822.72;4340344;33;34995;-77
2022/08/14 11:49:54;;;;;;;;;;;;;;;34.42;21.39;98818.56;4339583;33;33827;-78
2022/08/14 11:52:33;;;;;;;;;;;;;;;35.05;20.91;98812.34;4338630;33;34552;-76
2022/08/14 11:55:10;;;;;;;;;;;;;;;35.25;20.79;98805.25;4337694;33;34102;-77
2022/08/14 11:57:39;;;;;;;;;;;;;;;35.55;21.19;98810.31;4342517;33;34623;-77
2022/08/14 12:00:10;;;;;;;;;;;;;;;35.58;21.21;98806.38;4339644;33;33542;-78
2022/08/14 12:02:50;;;;;;;;;;;;;;;35.55;20.42;98802.22;4339292;33;32869;-77
2022/08/14 12:05:33;;;;;;;;;;;;;;;35.53;20.78;98793.50;4338361;33;33576;-78
2022/08/14 12:08:06;;;;;;;;;;;;;;;34.98;22.11;98798.84;4341625;33;34539;-77
2022/08/14 12:10:41;;;;;;;;;;;;;;;35.28;21.82;98795.06;4343887;33;34771;-77
2022/08/14 12:13:11;;;;;;;;;;;;;;;35.31;21.19;98792.81;4337776;33;32453;-77
2022/08/14 12:15:40;;;;;;;;;;;;;;;35.39;21.11;98791.78;4338847;33;33927;-79
2022/08/14 12:18:13;;;;;;;;;;;;;;;35.86;21.35;98792.78;4340077;33;33591;-77
2022/08/14 12:20:48;;;;;;;;;;;;;;;36.18;20.85;98796.56;4342790;33;34562;-77
2022/08/14 12:23:27;;;;;;;;;;;;;;;36.33;20.33;98792.81;4342574;33;34471;-77
2022/08/14 12:26:04;;;;;;;;;;;;;;;36.47;20.48;98789.87;4333824;33;34509;-77
2022/08/14 12:28:56;;;;;;;;;;;;;;;36.55;19.66;98782.59;4335414;33;34900;-78
2022/08/14 12:31:27;;;;;;;;;;;;;;;36.52;19.83;98781.97;4331808;33;34216;-76
2022/08/14 12:34:04;;;;;;;;;;;;;;;36.75;19.10;98783.41;4337806;33;32921;-77
2022/08/14 12:36:39;;;;;;;;;;;;;;;36.61;19.57;98777.22;4344172;33;34774;-78
2022/08/14 12:39:17;;;;;;;;;;;;;;;36.34;20.67;98772.84;4337367;33;34132;-78
2022/08/14 12:41:50;;;;;;;;;;;;;;;36.54;19.41;98773.69;4335188;33;33665;-78
2022/08/14 12:44:31;;;;;;;;;;;;;;;36.90;20.00;98773.19;4337456;33;33926;-77
2022/08/14 12:47:04;;;;;;;;;;;;;;;37.13;19.75;98770.00;4338643;33;34178;-76
2022/08/14 12:49:33;;;;;;;;;;;;;;;37.12;18.54;98773.78;4344857;33;34252;-78
2022/08/14 12:52:05;;;;;;;;;;;;;;;37.36;19.63;98776.78;4336909;33;33989;-76
2022/08/14 12:54:44;;;;;;;;;;;;;;;37.37;18.42;98771.16;4332292;33;34847;-77
2022/08/14 12:57:34;;;;;;;;;;;;;;;36.53;19.10;98763.91;4331766;32;33722;-77
2022/08/14 13:00:11;;;;;;;;;;;;;;;37.11;19.04;98763.16;4335628;33;33338;-77
2022/08/14 13:02:51;;;;;;;;;;;;;;;36.87;18.96;98751.16;4333932;33;33419;-77
2022/08/14 13:05:24;;;;;;;;;;;;;;;37.48;18.54;98757.97;4340477;33;32883;-77
2022/08/14 13:07:56;;;;;;;;;;;;;;;37.65;18.67;98758.31;4336074;33;33749;-77
2022/08/14 13:10:27;;;;;;;;;;;;;;;37.83;17.21;98754.88;4338592;33;34155;-76
2022/08/14 13:13:15;;;;;;;;;;;;;;;37.28;18.80;98749.97;4330552;33;34485;-78
2022/08/14 13:15:45;;;;;;;;;;;;;;;37.53;18.74;98760.91;4341645;33;33351;-77
2022/08/14 13:18:17;;;;;;;;;;;;;;;37.62;17.97;98754.16;4345436;33;33388;-76
2022/08/14 13:20:46;;;;;;;;;;;;;;;37.57;17.86;98752.16;4338454;33;34685;-76
2022/08/14 13:23:23;;;;;;;;;;;;;;;37.25;18.30;98745.81;4338692;33;34078;-76
2022/08/14 13:25:59;;;;;;;;;;;;;;;36.80;19.02;98748.50;4338488;33;33451;-78
2022/08/14 13:28:28;;;;;;;;;;;;;;;36.79;18.42;98737.88;4338974;33;34161;-76
2022/08/14 13:31:03;;;;;;;;;;;;;;;36.42;19.76;98741.06;4338888;33;33666;-77
2022/08/14 13:33:39;;;;;;;;;;;;;;;36.09;20.23;98738.41;4340955;33;33817;-76
2022/08/14 13:36:08;;;;;;;;;;;;;;;35.90;20.81;98743.53;4340814;33;33418;-76
2022/08/14 13:38:41;;;;;;;;;;;;;;;35.74;21.52;98741.28;4338374;33;33591;-76
2022/08/14 13:41:10;;;;;;;;;;;;;;;35.90;21.42;98740.03;4341802;33;34368;-77
2022/08/14 13:43:39;;;;;;;;;;;;;;;35.93;20.26;98736.94;4341171;33;33791;-77
2022/08/14 13:46:27;;;;;;;;;;;;;;;36.19;20.09;98736.09;4340237;33;34079;-77
2022/08/14 13:48:57;;;;;;;;;;;;;;;35.21;21.93;98738.44;4340626;33;33814;-76
2022/08/14 13:51:28;;;;;;;;;;;;;;;35.83;21.49;98733.78;4337573;33;34126;-77